createdAt,value
2023-01-06T00:03:02.470Z,7.60
2023-01-06T00:07:05.875Z,7.59
2023-01-06T00:11:10.196Z,7.53
2023-01-06T00:15:15.391Z,7.50
2023-01-06T00:19:18.425Z,7.48
2023-01-06T00:23:21.425Z,7.46
2023-01-06T00:27:24.599Z,7.44
2023-01-06T00:31:30.127Z,7.45
2023-01-06T00:35:33.546Z,7.44
2023-01-06T00:39:36.747Z,7.40
2023-01-06T00:43:39.837Z,7.38
2023-01-06T00:47:44.680Z,7.38
2023-01-06T00:51:48.013Z,7.41
2023-01-06T00:55:51.248Z,7.41
2023-01-06T00:59:54.777Z,7.39
2023-01-06T01:03:59.218Z,7.39
2023-01-06T01:08:02.213Z,7.40
2023-01-06T01:12:12.533Z,7.43
2023-01-06T01:16:15.648Z,7.47
2023-01-06T01:20:20.311Z,7.49
2023-01-06T01:24:24.013Z,7.50
2023-01-06T01:28:27.058Z,7.53
2023-01-06T01:32:30.058Z,7.54
2023-01-06T01:36:35.863Z,7.55
2023-01-06T01:40:38.891Z,7.56
2023-01-06T01:44:59.494Z,7.59
2023-01-06T01:49:08.011Z,7.62
2023-01-06T01:53:16.834Z,7.66
2023-01-06T01:57:24.825Z,7.68
2023-01-06T02:01:28.310Z,7.70
2023-01-06T02:05:32.222Z,7.71
2023-01-06T02:09:41.509Z,7.71
2023-01-06T02:13:47.551Z,7.69
2023-01-06T02:18:27.011Z,7.68
2023-01-06T02:22:50.758Z,7.65
2023-01-06T02:27:38.881Z,7.63
2023-01-06T02:31:59.370Z,7.58
2023-01-06T02:36:19.104Z,7.54
2023-01-06T02:40:34.857Z,7.51
2023-01-06T02:44:46.714Z,7.48
2023-01-06T02:49:07.430Z,7.46
2023-01-06T02:53:19.584Z,7.49
2023-01-06T02:57:31.232Z,7.50
2023-01-06T03:01:40.821Z,7.49
2023-01-06T03:05:49.315Z,7.49
2023-01-06T03:09:55.162Z,7.45
2023-01-06T03:14:04.122Z,7.40
2023-01-06T03:18:07.737Z,7.38
2023-01-06T03:22:14.212Z,7.31
2023-01-06T03:26:18.085Z,7.26
2023-01-06T03:30:22.788Z,7.23
2023-01-06T03:34:44.644Z,7.23
2023-01-06T03:38:57.512Z,7.23
2023-01-06T03:43:16.492Z,7.23
2023-01-06T03:47:28.560Z,7.21
2023-01-06T03:51:50.242Z,7.23
2023-01-06T03:56:02.526Z,7.23
2023-01-06T04:00:10.364Z,7.23
2023-01-06T04:04:26.914Z,7.14
2023-01-06T04:08:30.232Z,7.08
2023-01-06T04:12:41.828Z,7.03
2023-01-06T04:16:49.771Z,6.94
2023-01-06T04:20:52.914Z,6.87
2023-01-06T04:25:02.100Z,6.80
2023-01-06T04:29:06.888Z,6.67
2023-01-06T04:33:10.496Z,6.58
2023-01-06T04:37:16.768Z,6.50
2023-01-06T04:41:19.880Z,6.36
2023-01-06T04:45:24.404Z,6.29
2023-01-06T04:49:27.525Z,6.24
2023-01-06T04:53:30.627Z,6.19
2023-01-06T04:57:33.660Z,6.12
2023-01-06T05:01:38.198Z,6.05
2023-01-06T05:05:41.269Z,5.91
2023-01-06T05:09:44.321Z,5.72
2023-01-06T05:13:47.473Z,5.68
2023-01-06T05:17:51.889Z,5.68
2023-01-06T05:21:54.925Z,5.64
2023-01-06T05:25:58.021Z,5.61
2023-01-06T05:30:01.040Z,5.56
2023-01-06T05:34:05.465Z,5.51
2023-01-06T05:38:08.830Z,5.46
2023-01-06T05:42:11.838Z,5.36
2023-01-06T05:46:14.986Z,5.27
2023-01-06T05:56:02.362Z,5.18
2023-01-06T06:00:06.609Z,5.16
2023-01-06T06:04:15.136Z,5.04
2023-01-06T06:08:18.274Z,4.95
2023-01-06T06:12:22.640Z,4.85
2023-01-06T06:16:27.545Z,4.83
2023-01-06T06:20:30.866Z,4.83
2023-01-06T06:24:33.908Z,4.88
2023-01-06T06:28:39.540Z,4.86
2023-01-06T06:32:42.968Z,4.94
2023-01-06T06:36:46.206Z,5.01
2023-01-06T06:40:49.413Z,5.08
2023-01-06T06:44:54.142Z,5.13
2023-01-06T06:48:57.158Z,5.19
2023-01-06T06:53:00.446Z,5.19
2023-01-06T06:57:03.645Z,5.19
2023-01-06T07:01:09.584Z,5.16
2023-01-06T07:05:12.688Z,5.23
2023-01-06T07:09:15.717Z,5.29
2023-01-06T07:13:18.947Z,5.37
2023-01-06T07:17:28.597Z,5.42
2023-01-06T07:21:31.614Z,5.44
2023-01-06T07:25:34.660Z,5.49
2023-01-06T07:29:37.755Z,5.54
2023-01-06T07:33:42.136Z,5.59
2023-01-06T07:37:45.631Z,5.66
2023-01-06T07:41:48.691Z,5.72
2023-01-06T07:45:52.443Z,5.75
2023-01-06T07:49:56.956Z,5.79
2023-01-06T07:54:00.003Z,5.83
2023-01-06T07:58:05.926Z,5.84
2023-01-06T08:02:11.805Z,5.88
2023-01-06T08:06:16.225Z,5.92
2023-01-06T08:10:19.360Z,5.91
2023-01-06T08:14:22.875Z,5.90
2023-01-06T08:18:26.088Z,5.90
2023-01-06T08:22:30.526Z,5.96
2023-01-06T08:26:33.733Z,6.00
2023-01-06T08:30:40.118Z,6.00
2023-01-06T08:34:43.751Z,5.98
2023-01-06T08:38:48.571Z,5.96
2023-01-06T08:42:51.663Z,5.96
2023-01-06T08:46:54.788Z,5.99
2023-01-06T08:51:02.658Z,6.00
2023-01-06T08:55:07.550Z,6.04
2023-01-06T08:59:14.931Z,6.11
2023-01-06T09:03:18.119Z,6.14
2023-01-06T09:07:21.284Z,6.20
2023-01-06T09:11:25.794Z,6.27
2023-01-06T09:15:28.872Z,6.35
2023-01-06T09:19:32.080Z,6.43
2023-01-06T09:23:35.332Z,6.49
2023-01-06T09:27:39.839Z,6.54
2023-01-06T09:31:43.048Z,6.60
2023-01-06T09:35:46.837Z,6.64
2023-01-06T09:39:49.886Z,6.64
2023-01-06T09:43:59.720Z,6.64
2023-01-06T09:48:08.161Z,6.72
2023-01-06T09:52:18.602Z,6.79
2023-01-06T09:56:25.620Z,6.86
2023-01-06T10:00:36.563Z,6.94
2023-01-06T10:04:39.712Z,7.03
2023-01-06T10:08:55.962Z,7.10
2023-01-06T10:13:11.865Z,7.16
2023-01-06T10:17:49.674Z,7.23
2023-01-06T10:22:05.266Z,7.31
2023-01-06T10:26:13.731Z,7.34
2023-01-06T10:30:20.927Z,7.42
2023-01-06T10:34:27.572Z,7.53
2023-01-06T10:38:36.391Z,7.63
2023-01-06T10:43:00.212Z,7.74
2023-01-06T10:47:03.771Z,7.88
2023-01-06T10:51:33.890Z,8.01
2023-01-06T10:55:41.913Z,8.13
2023-01-06T11:00:16.471Z,8.25
2023-01-06T11:04:20.089Z,8.38
2023-01-06T11:08:24.589Z,8.49
2023-01-06T11:12:32.300Z,8.60
2023-01-06T11:16:38.056Z,8.71
2023-01-06T11:20:41.618Z,8.80
2023-01-06T11:24:54.246Z,8.85
2023-01-06T11:28:57.620Z,8.91
2023-01-06T11:33:00.725Z,8.98
2023-01-06T11:37:03.948Z,9.03
2023-01-06T11:41:11.987Z,9.06
2023-01-06T11:45:32.063Z,9.11
2023-01-06T11:49:38.325Z,9.18
2023-01-06T11:53:55.396Z,9.23
2023-01-06T11:58:06.263Z,9.28
2023-01-06T12:02:17.164Z,9.35
2023-01-06T12:06:30.467Z,9.38
2023-01-06T12:10:35.374Z,9.43
2023-01-06T12:14:40.807Z,9.50
2023-01-06T12:18:44.488Z,9.55
2023-01-06T12:22:51.148Z,9.60
2023-01-06T12:26:54.934Z,9.66
2023-01-06T12:31:07.602Z,9.70
2023-01-06T12:35:16.508Z,9.76
2023-01-06T12:39:26.485Z,9.85
2023-01-06T12:43:35.034Z,9.87
2023-01-06T12:47:45.636Z,9.90
2023-01-06T12:51:53.281Z,9.91
2023-01-06T12:56:18.243Z,9.89
2023-01-06T13:00:39.490Z,9.92
2023-01-06T13:05:08.432Z,9.94
2023-01-06T13:09:24.427Z,9.96
2023-01-06T13:13:39.622Z,9.97
2023-01-06T13:17:48.286Z,9.99
2023-01-06T13:21:56.815Z,10.01
2023-01-06T13:26:24.930Z,10.05
2023-01-06T13:30:50.928Z,10.07
2023-01-06T13:35:14.546Z,10.10
2023-01-06T13:39:24.476Z,10.13
2023-01-06T13:43:30.953Z,10.14
2023-01-06T13:47:36.811Z,10.18
2023-01-06T13:51:42.522Z,10.22
2023-01-06T13:55:47.540Z,10.24
2023-01-06T13:59:51.650Z,10.27
2023-01-06T14:03:56.509Z,10.38
2023-01-06T14:08:01.760Z,10.47
2023-01-06T14:12:11.507Z,10.44
2023-01-06T14:16:15.300Z,10.40
2023-01-06T14:20:29.111Z,10.36
2023-01-06T14:24:36.082Z,10.33
2023-01-06T14:28:40.600Z,10.31
2023-01-06T14:33:04.703Z,10.31
2023-01-06T14:37:13.540Z,10.32
2023-01-06T14:41:21.735Z,10.30
2023-01-06T14:45:29.264Z,10.30
2023-01-06T14:49:39.396Z,10.29
2023-01-06T14:53:45.041Z,10.28
2023-01-06T14:57:50.523Z,10.34
2023-01-06T15:02:14.841Z,10.38
2023-01-06T15:06:20.986Z,10.37
2023-01-06T15:10:26.710Z,10.37
2023-01-06T15:14:32.937Z,10.37
2023-01-06T15:18:42.990Z,10.33
2023-01-06T15:22:49.302Z,10.31
2023-01-06T15:26:54.872Z,10.25
2023-01-06T15:30:59.044Z,10.23
2023-01-06T15:35:03.708Z,10.19
2023-01-06T15:39:08.141Z,10.14
2023-01-06T15:43:12.299Z,10.06
2023-01-06T15:47:26.382Z,10.00
2023-01-06T15:51:30.967Z,9.93
2023-01-06T15:55:36.824Z,9.87
2023-01-06T15:59:40.757Z,9.81
2023-01-06T16:03:47.750Z,9.79
2023-01-06T16:07:52.206Z,9.76
2023-01-06T16:12:00.261Z,9.75
2023-01-06T16:16:09.852Z,9.71
2023-01-06T16:20:23.907Z,9.69
2023-01-06T16:24:30.224Z,9.60
2023-01-06T16:28:33.805Z,9.50
2023-01-06T16:32:39.569Z,9.43
2023-01-06T16:36:42.688Z,9.35
2023-01-06T16:40:47.812Z,9.30
2023-01-06T16:45:01.099Z,9.23
2023-01-06T16:49:10.800Z,9.14
2023-01-06T16:53:45.050Z,9.09
2023-01-06T16:57:50.956Z,9.08
2023-01-06T17:01:54.113Z,9.07
2023-01-06T17:05:58.051Z,8.99
2023-01-06T17:10:01.187Z,8.89
2023-01-06T17:14:16.827Z,8.77
2023-01-06T17:18:26.374Z,8.73
2023-01-06T17:22:30.784Z,8.72
2023-01-06T17:26:33.812Z,8.73
2023-01-06T17:30:39.992Z,8.73
2023-01-06T17:34:42.954Z,8.70
2023-01-06T17:39:06.556Z,8.68
2023-01-06T17:43:21.782Z,8.67
2023-01-06T17:47:29.976Z,8.64
2023-01-06T17:51:33.077Z,8.62
2023-01-06T17:55:45.406Z,8.64
2023-01-06T17:59:53.165Z,8.59
2023-01-06T18:03:59.991Z,8.59
2023-01-06T18:08:12.288Z,8.60
2023-01-06T18:12:17.897Z,8.66
2023-01-06T18:16:29.790Z,8.73
2023-01-06T18:20:34.196Z,8.76
2023-01-06T18:24:40.160Z,8.81
2023-01-06T18:28:43.640Z,8.83
2023-01-06T18:32:47.052Z,8.90
2023-01-06T18:36:51.532Z,8.95
2023-01-06T18:40:54.881Z,9.00
2023-01-06T18:45:07.137Z,9.07
2023-01-06T18:49:12.166Z,9.14
2023-01-06T18:53:26.178Z,9.20
2023-01-06T18:57:32.372Z,9.23
2023-01-06T19:01:41.326Z,9.24
2023-01-06T19:05:44.769Z,9.23
2023-01-06T19:09:51.080Z,9.23
2023-01-06T19:13:58.976Z,9.22
2023-01-06T19:18:01.953Z,9.22
2023-01-06T19:22:22.550Z,9.23
2023-01-06T19:26:33.548Z,9.21
2023-01-06T19:30:44.525Z,9.34
2023-01-06T19:34:47.600Z,9.47
2023-01-06T19:38:50.834Z,9.41
2023-01-06T19:42:58.598Z,9.31
2023-01-06T19:47:10.180Z,9.24
2023-01-06T19:51:26.027Z,9.16
2023-01-06T19:55:30.654Z,9.07
2023-01-06T19:59:36.655Z,9.01
2023-01-06T20:03:44.243Z,8.94
2023-01-06T20:07:47.371Z,8.89
2023-01-06T20:11:51.392Z,8.85
2023-01-06T20:15:55.709Z,8.80
2023-01-06T20:19:58.606Z,8.77
2023-01-06T20:24:01.565Z,8.72
2023-01-06T20:28:04.661Z,8.68
2023-01-06T20:32:09.190Z,8.67
2023-01-06T20:36:16.908Z,8.66
2023-01-06T20:40:19.969Z,8.63
2023-01-06T20:44:23.000Z,8.62
2023-01-06T20:48:27.245Z,8.63
2023-01-06T20:52:30.183Z,8.66
2023-01-06T20:56:33.238Z,8.69
2023-01-06T21:00:36.830Z,8.70
2023-01-06T21:04:41.073Z,8.70
2023-01-06T21:08:44.029Z,8.70
2023-01-06T21:12:46.942Z,8.68
2023-01-06T21:16:50.158Z,8.69
2023-01-06T21:20:54.484Z,8.68
2023-01-06T21:24:57.428Z,8.65
2023-01-06T21:29:00.376Z,8.65
2023-01-06T21:33:03.441Z,8.64
2023-01-06T21:37:07.922Z,8.65
2023-01-06T21:41:28.564Z,8.69
2023-01-06T21:45:31.530Z,8.71
2023-01-06T21:49:34.703Z,8.75
2023-01-06T21:53:39.236Z,8.76
2023-01-06T21:57:42.872Z,8.78
2023-01-06T22:01:45.999Z,8.81
2023-01-06T22:05:49.024Z,8.83
2023-01-06T22:09:54.255Z,8.83
2023-01-06T22:13:57.558Z,8.85
2023-01-06T22:18:01.574Z,8.82
2023-01-06T22:22:05.079Z,8.80
2023-01-06T22:26:09.416Z,8.77
2023-01-06T22:30:12.985Z,8.76
2023-01-06T22:34:17.392Z,8.73
2023-01-06T22:38:20.375Z,8.69
2023-01-06T22:42:24.700Z,8.67
2023-01-06T22:46:28.022Z,8.64
2023-01-06T22:50:31.119Z,8.62
2023-01-06T22:54:34.045Z,8.57
2023-01-06T22:58:39.952Z,8.55
2023-01-06T23:02:43.408Z,8.52
2023-01-06T23:06:46.580Z,8.50
2023-01-06T23:10:49.498Z,8.47
2023-01-06T23:14:53.828Z,8.44
2023-01-06T23:18:56.940Z,8.41
2023-01-06T23:22:59.869Z,8.38
2023-01-06T23:27:02.820Z,8.32
2023-01-06T23:31:09.098Z,8.29
2023-01-06T23:35:12.046Z,8.28
2023-01-06T23:39:16.930Z,8.17
2023-01-06T23:43:19.986Z,8.07
2023-01-06T23:47:24.256Z,8.01
2023-01-06T23:51:30.155Z,7.97
2023-01-06T23:55:33.132Z,7.95
2023-01-06T23:59:36.035Z,7.86
